Time;durP1;ratioP1;P1;durP2;ratioP2;P2;SDS_P1;SDS_P2;PMS_P1;PMS_P2;Temp;Humidity;BMP_temperature;BMP_pressure;BME280_temperature;BME280_humidity;BME280_pressure;Samples;Min_cycle;Max_cycle;Signal;HPM_P1;HPM_P2
2022/04/08 00:00:34;;;;;;;1.02;0.40;;;13.60;99.90;;;;;;4921645;29;20071;-81
2022/04/08 00:03:00;;;;;;;2.63;0.32;;;13.60;99.90;;;;;;4914900;29;20024;-83
2022/04/08 00:05:26;;;;;;;0.50;0.47;;;13.60;99.90;;;;;;4908233;29;20048;-81
2022/04/08 00:07:51;;;;;;;0.57;0.52;;;13.50;99.90;;;;;;4909738;29;20024;-83
2022/04/08 00:10:18;;;;;;;3.75;0.50;;;13.50;99.90;;;;;;4909377;29;20462;-83
2022/04/08 00:12:44;;;;;;;1.38;0.30;;;13.40;99.90;;;;;;4910519;29;20032;-80
2022/04/08 00:15:11;;;;;;;6.15;0.45;;;13.40;99.90;;;;;;4909251;29;20032;-83
2022/04/08 00:17:36;;;;;;;3.90;0.60;;;13.30;99.90;;;;;;4908535;29;20118;-83
2022/04/08 00:20:03;;;;;;;3.63;0.50;;;13.30;99.90;;;;;;4923738;29;20036;-82
2022/04/08 00:22:29;;;;;;;3.85;0.52;;;13.20;99.90;;;;;;4915269;29;20124;-82
2022/04/08 00:24:57;;;;;;;1.15;0.45;;;13.20;99.90;;;;;;4907042;29;20060;-83
2022/04/08 00:27:22;;;;;;;2.25;0.30;;;13.10;99.90;;;;;;4906404;29;20477;-84
2022/04/08 00:32:36;;;;;;;1.33;0.50;;;13.00;99.90;;;;;;4973867;23;20070;-83
2022/04/08 00:35:02;;;;;;;2.35;0.50;;;13.00;99.90;;;;;;4915904;29;20040;-84
2022/04/08 00:37:27;;;;;;;0.68;0.30;;;12.90;99.90;;;;;;4915149;29;20031;-85
2022/04/08 00:42:28;;;;;;;3.03;0.40;;;12.80;99.90;;;;;;4917579;23;20036;-80
2022/04/08 00:44:54;;;;;;;2.97;0.40;;;12.70;99.90;;;;;;4916138;29;20076;-83
2022/04/08 00:47:20;;;;;;;0.55;0.30;;;12.60;99.90;;;;;;4915136;29;20036;-84
2022/04/08 00:49:46;;;;;;;0.70;0.40;;;12.60;99.90;;;;;;4913589;29;20029;-82
2022/04/08 00:52:13;;;;;;;0.32;0.30;;;12.50;99.90;;;;;;4915324;29;20032;-83
2022/04/08 00:54:40;;;;;;;0.65;0.20;;;12.50;99.90;;;;;;4913352;29;20091;-83
2022/04/08 00:57:06;;;;;;;2.03;0.38;;;12.50;99.90;;;;;;4910513;29;20029;-83
2022/04/08 00:59:32;;;;;;;2.95;0.80;;;12.50;99.90;;;;;;4916536;29;20042;-81
2022/04/08 01:01:58;;;;;;;2.10;0.30;;;12.50;99.90;;;;;;4911821;29;20036;-83
2022/04/08 01:04:27;;;;;;;1.80;0.50;;;12.50;99.90;;;;;;4907166;29;20655;-83
2022/04/08 01:06:54;;;;;;;1.08;0.30;;;12.50;99.90;;;;;;4906218;29;20055;-82
2022/04/08 01:09:21;;;;;;;1.05;0.40;;;12.40;99.90;;;;;;4913983;29;20039;-81
2022/04/08 01:11:47;;;;;;;1.13;0.30;;;12.40;99.90;;;;;;4917012;29;20029;-81
2022/04/08 01:14:14;;;;;;;1.38;0.40;;;12.40;99.90;;;;;;4915188;29;20096;-82
2022/04/08 01:16:40;;;;;;;1.58;0.47;;;12.30;99.90;;;;;;4908586;29;20080;-83
2022/04/08 01:19:06;;;;;;;0.63;0.40;;;12.30;99.90;;;;;;4907837;29;20393;-81
2022/04/08 01:21:33;;;;;;;3.58;0.70;;;12.20;99.90;;;;;;4915307;29;20033;-82
2022/04/08 01:24:00;;;;;;;3.05;0.60;;;12.20;99.90;;;;;;4909239;29;20043;-82
2022/04/08 01:26:27;;;;;;;3.95;1.13;;;12.20;99.90;;;;;;4906678;29;20101;-83
2022/04/08 01:28:54;;;;;;;0.63;0.60;;;12.10;99.90;;;;;;4908883;29;20029;-82
2022/04/08 01:31:20;;;;;;;1.42;0.57;;;12.10;99.90;;;;;;4911054;29;20024;-80
2022/04/08 01:33:46;;;;;;;0.85;0.50;;;12.10;99.90;;;;;;4913389;29;20041;-82
2022/04/08 01:36:12;;;;;;;0.68;0.28;;;12.10;99.90;;;;;;4911664;29;20021;-82
2022/04/08 01:38:37;;;;;;;0.63;0.50;;;12.10;99.90;;;;;;4913599;29;20088;-81
2022/04/08 01:41:03;;;;;;;3.42;0.60;;;12.00;99.90;;;;;;4915469;29;20063;-83
2022/04/08 01:43:29;;;;;;;2.63;0.50;;;12.00;99.90;;;;;;4919407;29;20033;-81
2022/04/08 01:45:55;;;;;;;5.78;0.80;;;11.90;99.90;;;;;;4917192;29;20029;-83
2022/04/08 01:48:20;;;;;;;3.88;0.80;;;11.90;99.90;;;;;;4917431;29;20036;-82
2022/04/08 01:50:46;;;;;;;2.03;0.60;;;11.90;99.90;;;;;;4910790;29;20039;-82
2022/04/08 01:53:13;;;;;;;2.45;0.73;;;11.80;99.90;;;;;;4908658;29;20024;-82
2022/04/08 01:55:39;;;;;;;4.40;0.70;;;11.80;99.90;;;;;;4910967;29;20056;-84
2022/04/08 01:58:06;;;;;;;4.03;1.20;;;11.70;99.90;;;;;;4910012;29;20040;-84
2022/04/08 02:00:32;;;;;;;3.45;0.93;;;11.70;99.90;;;;;;4908417;29;20107;-84
2022/04/08 02:02:58;;;;;;;3.65;1.00;;;11.60;99.90;;;;;;4906510;29;20572;-84
2022/04/08 02:05:24;;;;;;;2.10;0.98;;;11.60;99.90;;;;;;4905679;29;20035;-80
2022/04/08 02:07:53;;;;;;;3.67;1.00;;;11.50;99.90;;;;;;4911848;29;20043;-83
2022/04/08 02:10:19;;;;;;;5.43;0.93;;;11.40;99.90;;;;;;4909583;29;20028;-84
2022/04/08 02:12:45;;;;;;;2.90;0.70;;;11.30;99.90;;;;;;4906168;29;20103;-81
2022/04/08 02:15:11;;;;;;;5.00;0.98;;;11.30;99.90;;;;;;4905329;29;20035;-82
2022/04/08 02:17:37;;;;;;;2.55;0.88;;;11.20;99.90;;;;;;4908826;29;20096;-82
2022/04/08 02:20:08;;;;;;;6.10;1.42;;;11.10;99.90;;;;;;4915152;29;20037;-84
2022/04/08 02:22:35;;;;;;;10.93;0.98;;;11.20;99.90;;;;;;4886407;29;20056;-84
2022/04/08 02:25:02;;;;;;;4.18;0.95;;;11.10;99.90;;;;;;4903551;29;20024;-81
2022/04/08 02:27:29;;;;;;;5.45;1.48;;;11.10;99.90;;;;;;4904795;29;20033;-84
2022/04/08 02:29:56;;;;;;;2.88;0.82;;;11.10;99.90;;;;;;4903475;29;20032;-81
2022/04/08 02:32:22;;;;;;;2.25;0.77;;;11.00;99.90;;;;;;4908654;29;20068;-82
2022/04/08 02:34:48;;;;;;;8.50;1.17;;;11.00;99.90;;;;;;4919587;29;20096;-83
2022/04/08 02:37:14;;;;;;;2.28;0.80;;;11.00;99.90;;;;;;4912618;29;20036;-84
2022/04/08 02:39:39;;;;;;;6.43;1.08;;;11.00;99.90;;;;;;4904659;29;20029;-82
2022/04/08 02:42:06;;;;;;;4.30;1.35;;;11.00;99.90;;;;;;4904112;29;20041;-83
2022/04/08 02:44:31;;;;;;;2.90;0.77;;;10.90;99.90;;;;;;4904498;29;20040;-83
2022/04/08 02:46:58;;;;;;;4.78;1.05;;;10.90;99.90;;;;;;4904504;29;20041;-82
2022/04/08 02:49:24;;;;;;;3.78;0.93;;;11.00;99.90;;;;;;4903233;29;20080;-83
2022/04/08 02:51:49;;;;;;;5.15;1.40;;;10.90;99.90;;;;;;4903779;29;20059;-83
2022/04/08 02:54:15;;;;;;;5.03;1.10;;;10.90;99.90;;;;;;4903504;29;20024;-82
2022/04/08 02:56:42;;;;;;;2.95;1.10;;;10.90;99.90;;;;;;4905626;29;20033;-84
2022/04/08 02:59:08;;;;;;;7.10;1.25;;;10.80;99.90;;;;;;4921152;29;20087;-80
2022/04/08 03:01:34;;;;;;;3.95;1.55;;;10.80;99.90;;;;;;4921183;29;20067;-81
2022/04/08 03:04:02;;;;;;;4.25;1.20;;;10.80;99.90;;;;;;4914445;29;20029;-83
2022/04/08 03:06:27;;;;;;;4.40;1.10;;;10.80;99.90;;;;;;4909096;29;20033;-82
2022/04/08 03:08:53;;;;;;;4.75;0.90;;;10.80;99.90;;;;;;4908521;29;20032;-85
2022/04/08 03:11:19;;;;;;;8.02;1.15;;;10.80;99.90;;;;;;4908259;29;20500;-82
2022/04/08 03:13:45;;;;;;;6.15;1.00;;;10.80;99.90;;;;;;4917750;29;20084;-83
2022/04/08 03:16:11;;;;;;;4.78;1.00;;;10.80;99.90;;;;;;4913252;29;20029;-82
2022/04/08 03:18:36;;;;;;;3.83;1.10;;;10.80;99.90;;;;;;4907924;29;20038;-81
2022/04/08 03:21:02;;;;;;;7.75;1.20;;;10.80;99.90;;;;;;4909224;29;20104;-83
2022/04/08 03:23:28;;;;;;;6.25;1.08;;;10.80;99.90;;;;;;4907723;29;20024;-84
2022/04/08 03:25:54;;;;;;;9.57;1.00;;;10.80;99.90;;;;;;4908947;29;20036;-81
2022/04/08 03:28:20;;;;;;;5.78;1.20;;;10.70;99.90;;;;;;4915921;29;20056;-84
2022/04/08 03:30:46;;;;;;;6.05;1.10;;;10.70;99.90;;;;;;4909560;29;20033;-82
2022/04/08 03:33:12;;;;;;;5.50;1.38;;;10.70;99.90;;;;;;4908057;29;20059;-84
2022/04/08 03:35:38;;;;;;;8.05;1.33;;;10.60;99.90;;;;;;4908672;29;20450;-83
2022/04/08 03:38:04;;;;;;;3.25;1.08;;;10.50;99.90;;;;;;4920703;29;20087;-83
2022/04/08 03:40:31;;;;;;;4.30;0.93;;;10.50;99.90;;;;;;4910104;29;20039;-84
2022/04/08 03:42:56;;;;;;;6.00;0.80;;;10.50;99.90;;;;;;4911795;29;20722;-82
2022/04/08 03:45:24;;;;;;;5.47;1.13;;;10.60;99.90;;;;;;4906085;29;20052;-84
2022/04/08 03:47:50;;;;;;;4.03;1.27;;;10.60;99.90;;;;;;4908027;29;20024;-82
2022/04/08 03:50:16;;;;;;;6.82;1.10;;;10.60;99.90;;;;;;4907836;29;20049;-85
2022/04/08 03:52:43;;;;;;;5.45;1.42;;;10.60;99.90;;;;;;4909346;29;20036;-82
2022/04/08 03:55:10;;;;;;;7.00;1.42;;;10.50;99.90;;;;;;4915052;29;20029;-83
2022/04/08 03:57:35;;;;;;;5.30;1.33;;;10.50;99.90;;;;;;4918769;29;20025;-83
2022/04/08 04:00:02;;;;;;;5.82;1.20;;;10.40;99.90;;;;;;4914128;29;20060;-83
2022/04/08 04:02:33;;;;;;;9.90;1.25;;;10.40;99.90;;;;;;4907422;29;20025;-84
2022/04/08 04:04:59;;;;;;;7.13;1.13;;;10.40;99.90;;;;;;4907511;29;20103;-83
2022/04/08 04:07:28;;;;;;;6.47;1.27;;;10.40;99.90;;;;;;4907538;29;20540;-83
2022/04/08 04:09:54;;;;;;;5.78;1.20;;;10.40;99.90;;;;;;4907617;29;20084;-82
2022/04/08 04:12:20;;;;;;;5.72;1.00;;;10.40;99.90;;;;;;4906886;29;20032;-84
2022/04/08 04:14:46;;;;;;;8.25;1.55;;;10.40;99.90;;;;;;4910273;29;20038;-83
2022/04/08 04:17:12;;;;;;;7.63;1.00;;;10.30;99.90;;;;;;4920865;29;20016;-80
2022/04/08 04:19:38;;;;;;;7.43;1.60;;;10.40;99.90;;;;;;4917578;29;20040;-84
2022/04/08 04:22:04;;;;;;;5.75;0.95;;;10.30;99.90;;;;;;4921289;29;20036;-82
2022/04/08 04:24:30;;;;;;;8.80;1.20;;;10.40;99.90;;;;;;4922520;29;20033;-82
2022/04/08 04:26:56;;;;;;;5.28;1.00;;;10.40;99.90;;;;;;4918571;29;20123;-82
2022/04/08 04:29:21;;;;;;;4.72;1.17;;;10.40;99.90;;;;;;4919440;29;20032;-82
2022/04/08 04:31:47;;;;;;;7.80;1.08;;;10.30;99.90;;;;;;4938984;23;20206;-85
2022/04/08 04:34:14;;;;;;;6.78;1.13;;;10.30;99.90;;;;;;4917152;29;20021;-85
2022/04/08 04:36:39;;;;;;;4.40;1.15;;;10.30;99.90;;;;;;4917860;29;20057;-85
2022/04/08 04:39:05;;;;;;;7.70;1.10;;;10.30;99.90;;;;;;4916130;29;20032;-85
2022/04/08 04:41:32;;;;;;;4.72;0.90;;;10.30;99.90;;;;;;4909201;29;20036;-84
2022/04/08 04:43:58;;;;;;;6.43;1.13;;;10.30;99.90;;;;;;4907294;29;20056;-84
2022/04/08 04:46:24;;;;;;;6.55;1.15;;;10.30;99.90;;;;;;4909070;29;20056;-83
2022/04/08 04:48:49;;;;;;;3.65;1.27;;;10.30;99.90;;;;;;4907162;29;20120;-84
2022/04/08 04:51:16;;;;;;;4.88;1.13;;;10.30;99.90;;;;;;4906222;29;20393;-84
2022/04/08 04:53:42;;;;;;;6.00;1.00;;;10.30;99.90;;;;;;4905893;29;20465;-86
2022/04/08 04:56:08;;;;;;;4.78;1.00;;;10.30;99.90;;;;;;4904800;29;20098;-85
2022/04/08 04:58:34;;;;;;;4.70;1.20;;;10.40;99.90;;;;;;4910834;29;20163;-83
2022/04/08 05:01:00;;;;;;;6.72;1.45;;;10.40;99.90;;;;;;4907071;29;20025;-83
2022/04/08 05:03:26;;;;;;;14.48;1.67;;;10.30;99.90;;;;;;4914379;29;20508;-84
2022/04/08 05:05:53;;;;;;;6.82;1.63;;;10.40;99.90;;;;;;4910835;29;20032;-84
2022/04/08 05:08:20;;;;;;;6.85;1.17;;;10.40;99.90;;;;;;4907462;29;20036;-85
2022/04/08 05:10:47;;;;;;;3.20;1.10;;;10.50;99.90;;;;;;4914811;29;20031;-83
2022/04/08 05:13:13;;;;;;;5.20;0.98;;;10.50;99.90;;;;;;4916284;29;20032;-85
2022/04/08 05:15:42;;;;;;;13.55;1.58;;;10.60;99.90;;;;;;4913070;29;20060;-83
2022/04/08 05:18:09;;;;;;;7.05;1.10;;;10.60;99.90;;;;;;4913518;29;20028;-85
2022/04/08 05:20:35;;;;;;;4.75;1.55;;;10.60;99.90;;;;;;4919035;29;20045;-84
2022/04/08 05:23:01;;;;;;;6.30;1.25;;;10.60;99.90;;;;;;4920756;29;20092;-85
2022/04/08 05:25:27;;;;;;;3.22;0.90;;;10.60;99.90;;;;;;4917265;29;20028;-85
2022/04/08 05:27:53;;;;;;;6.40;1.17;;;10.60;99.90;;;;;;4912426;29;20036;-87
2022/04/08 05:30:19;;;;;;;10.15;1.25;;;10.60;99.90;;;;;;4911695;29;20083;-84
2022/04/08 05:32:46;;;;;;;7.95;1.10;;;10.60;99.90;;;;;;4912845;29;20507;-82
2022/04/08 05:35:14;;;;;;;6.88;1.40;;;10.60;99.90;;;;;;4918710;29;20072;-87
2022/04/08 05:37:42;;;;;;;9.65;1.27;;;10.60;99.90;;;;;;4918786;29;20079;-84
2022/04/08 05:40:11;;;;;;;4.68;1.20;;;10.60;99.90;;;;;;4924041;29;20023;-84
2022/04/08 05:42:39;;;;;;;4.00;1.50;;;10.60;99.90;;;;;;4934648;29;20476;-84
2022/04/08 05:45:07;;;;;;;5.70;1.20;;;10.70;99.90;;;;;;4936079;29;20035;-83
2022/04/08 05:47:34;;;;;;;4.60;1.20;;;10.70;99.90;;;;;;4927141;29;20020;-84
2022/04/08 05:50:00;;;;;;;4.32;1.42;;;10.80;99.90;;;;;;4924886;29;20052;-86
2022/04/08 05:52:26;;;;;;;4.50;0.88;;;10.80;99.90;;;;;;4890183;29;20041;-84
2022/04/08 05:54:52;;;;;;;3.80;1.27;;;10.70;99.90;;;;;;4890835;29;20033;-85
2022/04/08 05:57:22;;;;;;;5.88;1.33;;;10.60;99.90;;;;;;4896903;29;20104;-83
2022/04/08 05:59:48;;;;;;;5.80;1.25;;;10.70;99.90;;;;;;4909536;29;20037;-86
2022/04/08 06:02:15;;;;;;;4.70;1.27;;;10.70;99.90;;;;;;4909543;29;20033;-86
2022/04/08 06:04:40;;;;;;;4.45;0.82;;;10.80;99.90;;;;;;4908596;29;20028;-84
2022/04/08 06:07:07;;;;;;;4.28;1.70;;;10.70;99.90;;;;;;4909181;29;20027;-86
2022/04/08 06:09:33;;;;;;;9.35;1.48;;;10.70;99.90;;;;;;4908589;29;20039;-84
2022/04/08 06:12:00;;;;;;;3.72;1.17;;;10.70;99.90;;;;;;4910773;29;20031;-86
2022/04/08 06:14:26;;;;;;;5.80;1.27;;;10.80;99.90;;;;;;4892064;29;20037;-87
2022/04/08 06:16:53;;;;;;;7.70;1.50;;;10.90;99.90;;;;;;4896011;29;20017;-85
2022/04/08 06:19:19;;;;;;;6.70;1.00;;;10.90;99.90;;;;;;4924361;29;20058;-83
2022/04/08 06:21:44;;;;;;;5.85;1.70;;;11.00;99.90;;;;;;4924605;29;20029;-86
2022/04/08 06:24:10;;;;;;;14.40;3.53;;;11.00;99.80;;;;;;4915028;29;20397;-84
2022/04/08 06:26:36;;;;;;;5.07;1.20;;;11.00;99.50;;;;;;4908559;29;20027;-84
2022/04/08 06:29:05;;;;;;;4.30;1.30;;;11.00;99.60;;;;;;4912103;29;20043;-84
2022/04/08 06:31:32;;;;;;;3.75;1.10;;;11.00;99.70;;;;;;4919334;29;20339;-85
2022/04/08 06:34:01;;;;;;;3.70;1.15;;;11.00;99.60;;;;;;4910923;29;20127;-84
2022/04/08 06:36:28;;;;;;;4.57;1.15;;;10.80;99.90;;;;;;4909643;29;20032;-84
2022/04/08 06:38:55;;;;;;;6.57;1.25;;;10.80;99.90;;;;;;4918504;29;20037;-83
2022/04/08 06:41:21;;;;;;;5.35;1.65;;;10.90;99.90;;;;;;4916846;29;20024;-85
2022/04/08 06:43:46;;;;;;;5.47;1.77;;;10.90;99.90;;;;;;4919643;29;20466;-85
2022/04/08 06:46:12;;;;;;;5.03;1.38;;;11.00;99.90;;;;;;4917567;29;20016;-85
2022/04/08 06:48:41;;;;;;;7.90;1.35;;;11.00;99.90;;;;;;4917054;29;20028;-85
2022/04/08 06:51:07;;;;;;;13.20;1.45;;;11.00;99.90;;;;;;4919083;29;20088;-85
2022/04/08 06:53:34;;;;;;;4.13;1.10;;;11.00;99.90;;;;;;4924025;29;20115;-84
2022/04/08 06:56:03;;;;;;;5.30;1.75;;;11.00;99.90;;;;;;4932185;29;20036;-83
2022/04/08 06:58:30;;;;;;;12.88;1.70;;;11.00;99.90;;;;;;4939857;29;20071;-83
2022/04/08 07:00:57;;;;;;;8.02;1.25;;;11.00;99.90;;;;;;4935975;29;20029;-84
2022/04/08 07:03:22;;;;;;;5.35;1.20;;;11.00;99.90;;;;;;4933369;29;20059;-84
2022/04/08 07:05:48;;;;;;;3.97;1.17;;;11.00;99.90;;;;;;4934886;29;20044;-85
2022/04/08 07:08:15;;;;;;;4.85;0.88;;;10.90;99.90;;;;;;4930167;29;20096;-84
2022/04/08 07:10:40;;;;;;;3.22;1.10;;;10.70;99.90;;;;;;4931863;29;20095;-83
2022/04/08 07:13:07;;;;;;;6.07;1.30;;;10.80;99.90;;;;;;4934795;29;20036;-83
2022/04/08 07:15:34;;;;;;;7.53;1.20;;;10.90;99.90;;;;;;4926317;29;20032;-81
2022/04/08 07:18:00;;;;;;;4.82;1.52;;;10.90;99.90;;;;;;4929136;29;20024;-84
2022/04/08 07:20:26;;;;;;;7.38;1.77;;;11.00;99.90;;;;;;4926304;29;20024;-84
2022/04/08 07:22:51;;;;;;;6.20;1.20;;;11.00;99.90;;;;;;4930723;29;20036;-84
2022/04/08 07:25:18;;;;;;;10.23;1.20;;;11.10;99.90;;;;;;4925463;29;20024;-85
2022/04/08 07:27:52;;;;;;;5.13;1.33;;;11.30;99.90;;;;;;4926723;29;20088;-83
2022/04/08 07:30:20;;;;;;;3.53;0.95;;;11.30;99.90;;;;;;4931367;29;20036;-84
2022/04/08 07:32:48;;;;;;;9.10;1.80;;;11.30;99.90;;;;;;4913606;29;20044;-83
2022/04/08 07:35:14;;;;;;;5.53;1.33;;;11.40;99.90;;;;;;4912255;29;20096;-84
2022/04/08 07:37:40;;;;;;;6.93;1.40;;;11.50;99.90;;;;;;4908528;29;20025;-84
2022/04/08 07:40:08;;;;;;;3.30;0.90;;;11.70;99.90;;;;;;4910344;29;20457;-83
2022/04/08 07:42:34;;;;;;;2.85;1.15;;;11.60;99.90;;;;;;4917386;29;20037;-82
2022/04/08 07:45:00;;;;;;;4.30;1.20;;;11.70;99.90;;;;;;4919132;29;20039;-82
2022/04/08 07:47:29;;;;;;;7.68;1.50;;;11.80;99.90;;;;;;4916933;29;20021;-87
2022/04/08 07:49:59;;;;;;;6.13;1.30;;;11.70;99.90;;;;;;4917238;29;20045;-83
2022/04/08 07:52:26;;;;;;;4.18;1.15;;;11.60;99.90;;;;;;4913460;29;20051;-82
2022/04/08 07:54:53;;;;;;;3.58;1.23;;;11.60;99.90;;;;;;4912447;29;20040;-84
2022/04/08 07:57:18;;;;;;;5.28;1.10;;;11.80;99.90;;;;;;4912020;29;20564;-84
2022/04/08 07:59:44;;;;;;;4.05;1.40;;;11.90;99.90;;;;;;4913883;29;20012;-84
2022/04/08 08:02:10;;;;;;;7.65;1.50;;;12.00;99.90;;;;;;4914347;29;20032;-83
2022/04/08 08:04:37;;;;;;;4.90;1.30;;;11.90;99.90;;;;;;4911570;29;20025;-82
2022/04/08 08:07:03;;;;;;;7.28;1.70;;;11.80;99.90;;;;;;4912118;29;20036;-82
2022/04/08 08:09:29;;;;;;;15.43;2.08;;;11.70;99.90;;;;;;4912301;29;20039;-81
2022/04/08 08:11:55;;;;;;;6.60;1.25;;;11.80;99.90;;;;;;4909233;29;20036;-81
2022/04/08 08:14:20;;;;;;;5.30;1.15;;;11.70;99.90;;;;;;4910232;29;20454;-82
2022/04/08 08:16:46;;;;;;;6.88;1.35;;;11.70;99.90;;;;;;4912241;29;20094;-84
2022/04/08 08:19:13;;;;;;;7.55;1.48;;;11.50;99.90;;;;;;4911658;29;20059;-84
2022/04/08 08:21:39;;;;;;;9.18;1.30;;;11.70;99.90;;;;;;4910411;29;20048;-83
2022/04/08 08:24:05;;;;;;;6.07;1.17;;;11.70;99.90;;;;;;4909715;29;20033;-83
2022/04/08 08:26:31;;;;;;;5.65;1.10;;;11.80;99.90;;;;;;4911779;29;20270;-84
2022/04/08 08:28:57;;;;;;;5.35;1.25;;;11.60;99.90;;;;;;4914149;29;20029;-83
2022/04/08 08:31:23;;;;;;;6.03;1.30;;;11.70;99.90;;;;;;4908328;29;20033;-83
2022/04/08 08:33:50;;;;;;;6.22;1.27;;;11.60;99.90;;;;;;4917537;29;20508;-83
2022/04/08 08:36:16;;;;;;;8.68;1.40;;;11.40;99.90;;;;;;4913080;29;20041;-83
2022/04/08 08:38:42;;;;;;;13.18;1.40;;;11.30;99.90;;;;;;4910627;29;20039;-83
2022/04/08 08:41:10;;;;;;;19.23;1.63;;;11.30;99.90;;;;;;4910955;29;20446;-84
2022/04/08 08:43:36;;;;;;;7.75;1.23;;;11.30;99.90;;;;;;4909119;29;20035;-85
2022/04/08 08:46:04;;;;;;;6.03;1.35;;;11.30;99.90;;;;;;4910885;29;20032;-82
2022/04/08 08:48:33;;;;;;;6.75;1.80;;;11.30;99.90;;;;;;4912564;29;20084;-84
2022/04/08 08:51:01;;;;;;;9.43;1.77;;;11.40;99.90;;;;;;4914420;29;20044;-81
2022/04/08 08:53:30;;;;;;;5.35;1.73;;;11.50;99.90;;;;;;4918251;29;20064;-82
2022/04/08 08:55:56;;;;;;;8.18;1.42;;;11.60;99.90;;;;;;4918606;29;20041;-83
2022/04/08 08:58:23;;;;;;;9.25;1.83;;;11.60;99.90;;;;;;4916406;29;20088;-81
2022/04/08 09:00:49;;;;;;;5.75;1.50;;;11.60;99.90;;;;;;4931322;29;20036;-81
2022/04/08 09:03:15;;;;;;;7.95;1.55;;;11.70;99.90;;;;;;4923272;29;20021;-82
2022/04/08 09:05:44;;;;;;;11.30;1.63;;;11.90;99.90;;;;;;4928206;29;20067;-83
2022/04/08 09:08:11;;;;;;;6.60;1.77;;;12.00;99.90;;;;;;4923697;29;20035;-81
2022/04/08 09:10:46;;;;;;;15.38;4.75;;;12.20;99.90;;;;;;4923675;29;20130;-81
2022/04/08 09:13:16;;;;;;;7.40;1.92;;;12.30;99.90;;;;;;4922656;29;20056;-83
2022/04/08 09:15:52;;;;;;;6.63;1.60;;;12.40;99.80;;;;;;4933897;29;20071;-81
2022/04/08 09:18:18;;;;;;;3.38;1.40;;;12.40;99.60;;;;;;4936548;29;20043;-82
2022/04/08 09:20:46;;;;;;;3.13;1.13;;;12.50;99.70;;;;;;4938796;29;20031;-81
2022/04/08 09:23:14;;;;;;;4.22;1.17;;;12.70;99.00;;;;;;4938552;29;20028;-81
2022/04/08 09:25:40;;;;;;;6.47;1.63;;;12.80;98.80;;;;;;4938069;29;20072;-81
2022/04/08 09:28:15;;;;;;;7.45;1.20;;;12.80;98.70;;;;;;4936858;29;20036;-82
2022/04/08 09:30:48;;;;;;;8.52;1.65;;;12.70;98.80;;;;;;4936510;29;20062;-81
2022/04/08 09:33:19;;;;;;;3.15;1.25;;;12.70;98.50;;;;;;4922924;29;20050;-82
2022/04/08 09:35:46;;;;;;;4.22;1.17;;;12.50;98.00;;;;;;4923075;29;20064;-84
2022/04/08 09:38:16;;;;;;;3.60;1.17;;;12.40;98.00;;;;;;4922477;29;20036;-82
2022/04/08 09:40:42;;;;;;;5.53;1.75;;;12.30;97.80;;;;;;4923956;29;20036;-81
2022/04/08 09:43:09;;;;;;;4.18;1.55;;;12.30;98.00;;;;;;4921950;29;20032;-84
2022/04/08 09:45:37;;;;;;;6.75;1.33;;;12.60;97.70;;;;;;4908837;29;20059;-82
2022/04/08 09:48:05;;;;;;;6.45;1.58;;;12.80;97.40;;;;;;4929022;29;20020;-82
2022/04/08 09:50:31;;;;;;;8.27;1.20;;;13.30;97.20;;;;;;4906422;29;20059;-83
2022/04/08 09:52:58;;;;;;;12.10;1.15;;;13.30;96.60;;;;;;4924164;29;20044;-81
2022/04/08 09:55:25;;;;;;;4.95;1.65;;;13.80;96.20;;;;;;4925979;29;20044;-82
2022/04/08 09:58:03;;;;;;;5.70;1.17;;;14.40;95.00;;;;;;4920947;29;20025;-82
2022/04/08 10:00:29;;;;;;;7.00;1.48;;;15.70;93.80;;;;;;4922910;29;20033;-81
2022/04/08 10:02:56;;;;;;;3.75;1.33;;;17.40;91.50;;;;;;4927769;29;20093;-80
2022/04/08 10:05:23;;;;;;;3.97;1.00;;;17.60;89.60;;;;;;4925899;29;20029;-83
2022/04/08 10:07:52;;;;;;;5.00;1.13;;;16.80;90.00;;;;;;4923504;29;20087;-80
2022/04/08 10:10:21;;;;;;;7.22;1.38;;;17.60;88.20;;;;;;4916193;29;20035;-83
2022/04/08 10:12:56;;;;;;;5.47;1.33;;;18.20;86.40;;;;;;4920496;29;20029;-83
2022/04/08 10:15:54;;;;;;;4.38;1.35;;;17.50;85.30;;;;;;4927674;29;20024;-80
2022/04/08 10:18:19;;;;;;;3.05;0.90;;;17.30;85.70;;;;;;4915246;29;20060;-82
2022/04/08 10:20:45;;;;;;;4.82;1.08;;;17.50;85.00;;;;;;4913242;29;20669;-80
2022/04/08 10:23:14;;;;;;;2.88;1.02;;;17.30;84.70;;;;;;4913042;29;20028;-81
2022/04/08 10:25:42;;;;;;;8.80;1.45;;;16.40;85.40;;;;;;4903340;29;20045;-82
2022/04/08 10:28:11;;;;;;;5.95;1.08;;;16.10;85.40;;;;;;4922883;29;20067;-81
2022/04/08 10:30:47;;;;;;;6.82;1.33;;;15.90;85.00;;;;;;4919583;29;20024;-83
2022/04/08 10:33:24;;;;;;;3.40;1.17;;;15.60;86.00;;;;;;4936209;23;20044;-82
2022/04/08 10:35:55;;;;;;;3.55;1.10;;;15.20;85.50;;;;;;4920301;29;20028;-85
2022/04/08 10:38:21;;;;;;;5.95;1.00;;;14.80;85.80;;;;;;4930074;29;20033;-84
2022/04/08 10:40:58;;;;;;;3.65;1.13;;;15.20;85.20;;;;;;4931498;29;20035;-83
2022/04/08 10:43:26;;;;;;;3.40;1.38;;;15.50;84.30;;;;;;4935221;29;20040;-82
2022/04/08 10:45:56;;;;;;;5.03;1.25;;;15.70;84.10;;;;;;4928010;29;20012;-85
2022/04/08 10:48:30;;;;;;;5.68;1.40;;;15.80;83.40;;;;;;4936373;29;20047;-82
2022/04/08 10:51:10;;;;;;;5.80;1.30;;;14.80;83.90;;;;;;4928081;29;20036;-83
2022/04/08 10:53:40;;;;;;;6.85;1.20;;;14.20;86.40;;;;;;4930549;29;20043;-84
2022/04/08 10:56:08;;;;;;;7.35;1.45;;;14.20;86.70;;;;;;4932758;29;20059;-83
2022/04/08 10:58:38;;;;;;;10.10;0.90;;;14.50;86.30;;;;;;4930337;29;20025;-83
2022/04/08 11:01:16;;;;;;;3.97;1.13;;;14.80;85.90;;;;;;4929307;29;20485;-85
2022/04/08 11:04:02;;;;;;;3.95;1.08;;;15.00;86.00;;;;;;4929677;29;20047;-83
2022/04/08 11:06:31;;;;;;;5.82;1.08;;;15.10;85.80;;;;;;4930999;29;20060;-83
2022/04/08 11:09:03;;;;;;;7.07;1.42;;;15.30;85.80;;;;;;4931624;29;20024;-86
2022/04/08 11:11:34;;;;;;;4.32;1.33;;;15.40;86.10;;;;;;4931225;29;20033;-84
2022/04/08 11:14:01;;;;;;;9.23;1.50;;;15.20;86.30;;;;;;4932620;29;20028;-84
2022/04/08 11:16:49;;;;;;;6.82;0.93;;;15.10;86.00;;;;;;4921027;29;20048;-85
2022/04/08 11:19:14;;;;;;;5.22;1.30;;;15.20;86.10;;;;;;4931555;29;20043;-84
2022/04/08 11:21:42;;;;;;;6.97;1.20;;;15.50;85.60;;;;;;4929484;29;20029;-84
2022/04/08 11:24:19;;;;;;;2.58;1.10;;;15.70;85.00;;;;;;4911877;29;20036;-85
2022/04/08 11:26:45;;;;;;;4.93;1.35;;;15.90;84.60;;;;;;4908433;29;20088;-83
2022/04/08 11:29:12;;;;;;;3.92;0.90;;;16.10;84.60;;;;;;4909817;29;20056;-84
2022/04/08 11:31:39;;;;;;;3.25;0.70;;;16.30;83.70;;;;;;4911088;29;20036;-82
2022/04/08 11:34:05;;;;;;;1.98;1.02;;;16.70;82.80;;;;;;4910614;29;20409;-84
2022/04/08 11:36:32;;;;;;;4.63;1.00;;;16.80;82.70;;;;;;4911513;29;20052;-81
2022/04/08 11:38:58;;;;;;;7.47;1.27;;;16.90;82.40;;;;;;4916710;29;20032;-83
2022/04/08 11:41:25;;;;;;;2.38;0.85;;;16.70;82.80;;;;;;4910634;29;20487;-83
2022/04/08 11:43:52;;;;;;;3.40;0.70;;;16.70;83.10;;;;;;4910586;29;20032;-83
2022/04/08 11:46:18;;;;;;;1.95;0.70;;;16.50;83.10;;;;;;4909669;29;20033;-83
2022/04/08 11:48:44;;;;;;;4.32;0.82;;;16.40;83.60;;;;;;4911392;29;20028;-84
2022/04/08 11:51:10;;;;;;;2.88;0.82;;;16.30;84.00;;;;;;4916257;29;20036;-85
2022/04/08 11:54:05;;;;;;;2.08;0.80;;;16.40;83.80;;;;;;4912434;29;20043;-84
2022/04/08 11:56:32;;;;;;;2.73;0.87;;;15.90;84.90;;;;;;4898128;29;20355;-85
2022/04/08 11:59:02;;;;;;;3.95;0.70;;;16.30;84.90;;;;;;4911024;29;20280;-83
2022/04/08 12:01:32;;;;;;;2.75;1.05;;;16.60;83.60;;;;;;4910083;29;20076;-83
2022/04/08 12:04:03;;;;;;;3.95;0.82;;;17.30;82.50;;;;;;4908630;29;20129;-83
2022/04/08 12:06:49;;;;;;;2.15;1.00;;;17.30;82.10;;;;;;4910484;29;20036;-83
2022/04/08 12:09:16;;;;;;;1.27;0.60;;;18.10;80.70;;;;;;4913350;29;20033;-84
2022/04/08 12:11:45;;;;;;;6.25;1.10;;;18.80;79.40;;;;;;4913259;29;20070;-84
2022/04/08 12:14:14;;;;;;;4.47;1.30;;;19.10;78.40;;;;;;4911010;29;20063;-85
2022/04/08 12:16:41;;;;;;;2.00;0.70;;;19.50;78.00;;;;;;4921592;29;20048;-84
2022/04/08 12:19:08;;;;;;;2.67;0.70;;;19.50;77.10;;;;;;4934614;29;20040;-81
2022/04/08 12:21:39;;;;;;;2.42;0.93;;;19.10;77.10;;;;;;4928058;29;20040;-84
2022/04/08 12:24:07;;;;;;;2.30;0.60;;;19.40;77.30;;;;;;4928724;29;20104;-83
2022/04/08 12:26:35;;;;;;;2.42;0.63;;;19.90;75.70;;;;;;4928624;29;20024;-84
2022/04/08 12:29:07;;;;;;;2.95;0.80;;;20.20;75.20;;;;;;4932625;29;20495;-83
2022/04/08 12:31:44;;;;;;;0.55;0.40;;;20.20;74.90;;;;;;4923525;29;20076;-84
2022/04/08 12:34:10;;;;;;;4.07;0.70;;;20.60;73.80;;;;;;4911418;29;20628;-85
2022/04/08 12:36:36;;;;;;;2.45;0.60;;;20.60;73.30;;;;;;4910245;29;20028;-85
2022/04/08 12:39:02;;;;;;;2.10;0.63;;;21.00;72.70;;;;;;4906922;29;20124;-83
2022/04/08 12:41:27;;;;;;;3.88;0.52;;;20.80;72.50;;;;;;4908526;29;20080;-85
2022/04/08 12:43:54;;;;;;;2.58;0.50;;;19.90;72.60;;;;;;4908458;29;20432;-84
2022/04/08 12:46:21;;;;;;;8.15;2.35;;;19.30;74.80;;;;;;4907479;29;20021;-84
2022/04/08 12:48:47;;;;;;;1.45;0.70;;;19.30;74.90;;;;;;4906250;29;20080;-86
2022/04/08 12:51:13;;;;;;;4.88;0.70;;;19.10;75.50;;;;;;4905828;29;20036;-84